Time;durP1;ratioP1;P1;durP2;ratioP2;P2;SDS_P1;SDS_P2;PMS_P1;PMS_P2;Temp;Humidity;BMP_temperature;BMP_pressure;BME280_temperature;BME280_humidity;BME280_pressure;Samples;Min_cycle;Max_cycle;Signal;HPM_P1;HPM_P2
2021/11/09 00:09:10;;;;;;;26.7;31;;;;;;;7.8;80.8;99500;;;;
2021/11/09 00:19:07;;;;;;;26.7;31;;;;;;;7.8;80.8;99500;;;;
2021/11/09 00:29:08;;;;;;;25;29.2;;;;;;;7.8;81;99510;;;;
2021/11/09 00:39:08;;;;;;;25;29.2;;;;;;;7.9;81.1;99510;;;;
2021/11/09 00:49:07;;;;;;;25;29.2;;;;;;;7.9;81;99510;;;;
2021/11/09 00:59:07;;;;;;;24.7;30.6;;;;;;;7.8;81.1;99520;;;;
2021/11/09 01:09:07;;;;;;;24.7;30.6;;;;;;;7.9;80.8;99510;;;;
2021/11/09 01:19:08;;;;;;;24.7;30.6;;;;;;;7.8;80.9;99510;;;;
2021/11/09 01:29:07;;;;;;;23.3;27.1;;;;;;;7.8;81.1;99520;;;;
2021/11/09 01:39:07;;;;;;;23.3;27.1;;;;;;;7.9;80.6;99520;;;;
2021/11/09 01:49:07;;;;;;;23.3;27.1;;;;;;;7.9;80.7;99530;;;;
2021/11/09 01:59:07;;;;;;;22.3;28.5;;;;;;;7.9;80.5;99540;;;;
2021/11/09 02:09:07;;;;;;;22.3;28.5;;;;;;;8;80.6;99550;;;;
2021/11/09 02:19:07;;;;;;;22.3;28.5;;;;;;;8;80.5;99550;;;;
2021/11/09 02:29:08;;;;;;;22;26.6;;;;;;;7.9;80.7;99550;;;;
2021/11/09 02:39:07;;;;;;;22;26.6;;;;;;;7.9;80.4;99560;;;;
2021/11/09 02:49:13;;;;;;;22;26.6;;;;;;;7.9;80.7;99580;;;;
2021/11/09 02:59:17;;;;;;;19.7;23;;;;;;;7.9;81.3;99580;;;;
2021/11/09 03:09:11;;;;;;;19.7;23;;;;;;;7.7;81.9;99580;;;;
2021/11/09 03:19:17;;;;;;;19.7;23;;;;;;;7.7;81.9;99610;;;;
2021/11/09 03:40:25;;;;;;;23.1;28.9;;;;;;;7.6;82.5;99620;;;;
2021/11/09 03:50:07;;;;;;;23.1;28.9;;;;;;;7.6;82.8;99630;;;;
2021/11/09 04:00:14;;;;;;;23.5;29.7;;;;;;;7.5;83;99640;;;;
2021/11/09 04:10:14;;;;;;;23.5;29.7;;;;;;;7.6;82.8;99640;;;;
2021/11/09 04:20:11;;;;;;;23.5;29.7;;;;;;;7.6;82.7;99650;;;;
2021/11/09 04:30:25;;;;;;;23.6;29.2;;;;;;;7.6;82.6;99660;;;;
2021/11/09 04:41:09;;;;;;;23.6;29.2;;;;;;;7.6;82.6;99670;;;;
2021/11/09 04:50:37;;;;;;;23.6;29.2;;;;;;;7.6;82.2;99670;;;;
2021/11/09 05:01:20;;;;;;;23.2;26.2;;;;;;;7.7;82;99680;;;;
2021/11/09 05:10:10;;;;;;;23.2;26.2;;;;;;;7.5;82.4;99680;;;;
2021/11/09 05:20:07;;;;;;;23.2;26.2;;;;;;;7.5;82.7;99700;;;;
2021/11/09 05:30:07;;;;;;;21.3;24.7;;;;;;;7.5;82.7;99720;;;;
2021/11/09 05:40:07;;;;;;;21.3;24.7;;;;;;;7.5;82.7;99740;;;;
2021/11/09 05:50:07;;;;;;;21.3;24.7;;;;;;;7.5;82.7;99750;;;;
2021/11/09 06:01:07;;;;;;;18.4;20.9;;;;;;;7.6;82.3;99780;;;;
2021/11/09 06:11:07;;;;;;;18.4;20.9;;;;;;;7.7;82;99790;;;;
2021/11/09 06:22:07;;;;;;;21.3;26.8;;;;;;;7.7;81.6;99820;;;;
2021/11/09 06:32:07;;;;;;;21.3;26.8;;;;;;;7.8;80.9;99850;;;;
2021/11/09 06:42:07;;;;;;;21.3;26.8;;;;;;;7.8;80.7;99880;;;;
2021/11/09 06:52:07;;;;;;;19.6;25.8;;;;;;;7.9;80.2;99900;;;;
2021/11/09 07:02:07;;;;;;;19.6;25.8;;;;;;;7.9;79.6;99930;;;;
2021/11/09 07:12:07;;;;;;;19.6;25.8;;;;;;;8;79.4;99960;;;;
2021/11/09 07:22:07;;;;;;;20.2;25.5;;;;;;;8;79.6;99970;;;;
2021/11/09 07:32:07;;;;;;;20.2;25.5;;;;;;;8;79.4;99980;;;;
2021/11/09 07:42:07;;;;;;;20.2;25.5;;;;;;;8;79.7;99990;;;;
2021/11/09 07:52:08;;;;;;;21;27.5;;;;;;;8;79.3;100010;;;;
2021/11/09 08:02:11;;;;;;;21;27.5;;;;;;;8;79.6;100020;;;;
2021/11/09 08:13:07;;;;;;;21;27.5;;;;;;;8.1;79.6;100030;;;;
2021/11/09 08:23:07;;;;;;;20.9;26.4;;;;;;;8.2;79;100050;;;;
2021/11/09 08:33:07;;;;;;;20.9;26.4;;;;;;;8.3;79.2;100060;;;;
2021/11/09 08:43:07;;;;;;;20.9;26.4;;;;;;;8.4;79.1;100080;;;;
2021/11/09 08:53:11;;;;;;;21.8;28;;;;;;;8.6;78.4;100100;;;;
2021/11/09 09:13:08;;;;;;;21.8;28;;;;;;;8.9;77.8;100130;;;;
2021/11/09 09:23:10;;;;;;;18.7;21.8;;;;;;;8.9;77.1;100130;;;;
2021/11/09 09:33:23;;;;;;;18.7;21.8;;;;;;;9;77.5;100130;;;;
2021/11/09 09:53:22;;;;;;;16.8;23.5;;;;;;;9.3;76.2;100160;;;;
2021/11/09 10:03:07;;;;;;;16.8;23.5;;;;;;;9.6;75.1;100160;;;;
2021/11/09 10:13:08;;;;;;;16.8;23.5;;;;;;;9.7;74.9;100170;;;;
2021/11/09 10:24:07;;;;;;;18.4;22.3;;;;;;;9.9;74.2;100180;;;;
2021/11/09 10:34:07;;;;;;;18.4;22.3;;;;;;;10.1;73.5;100180;;;;
2021/11/09 10:44:08;;;;;;;18.4;22.3;;;;;;;10;73;100200;;;;
2021/11/09 10:54:07;;;;;;;14.8;18.3;;;;;;;10.3;72.9;100210;;;;
2021/11/09 11:04:10;;;;;;;14.8;18.3;;;;;;;10.3;71.7;100220;;;;
2021/11/09 11:14:07;;;;;;;14.8;18.3;;;;;;;10.5;71.9;100230;;;;
2021/11/09 11:24:09;;;;;;;13.7;16.5;;;;;;;10.6;71;100230;;;;
2021/11/09 11:34:07;;;;;;;13.7;16.5;;;;;;;10.4;70.6;100250;;;;
2021/11/09 11:44:07;;;;;;;13.7;16.5;;;;;;;10.2;71.5;100250;;;;
2021/11/09 11:54:07;;;;;;;14.6;20.5;;;;;;;10;71.2;100250;;;;
2021/11/09 12:04:07;;;;;;;14.6;20.5;;;;;;;10;72.4;100250;;;;
2021/11/09 12:14:07;;;;;;;14.6;20.5;;;;;;;10.2;71.5;100260;;;;
2021/11/09 12:24:07;;;;;;;15.1;22.4;;;;;;;10.2;71.5;100250;;;;
2021/11/09 12:34:07;;;;;;;15.1;22.4;;;;;;;10.2;71.4;100260;;;;
2021/11/09 12:44:08;;;;;;;15.1;22.4;;;;;;;10;71.2;100250;;;;
2021/11/09 12:54:07;;;;;;;11.6;15.1;;;;;;;9.4;72.3;100240;;;;
2021/11/09 13:04:14;;;;;;;11.6;15.1;;;;;;;9.1;72.4;100240;;;;
2021/11/09 13:14:07;;;;;;;11.6;15.1;;;;;;;9.3;73.1;100240;;;;
2021/11/09 13:24:08;;;;;;;8.5;12.2;;;;;;;9.7;72.6;100250;;;;
2021/11/09 13:34:07;;;;;;;8.5;12.2;;;;;;;10.1;71;100250;;;;
2021/11/09 13:44:07;;;;;;;8.5;12.2;;;;;;;10.2;70.7;100260;;;;
2021/11/09 13:54:14;;;;;;;10.2;14.7;;;;;;;10.4;70.7;100270;;;;
2021/11/09 14:04:17;;;;;;;10.2;14.7;;;;;;;10.5;70.1;100280;;;;
2021/11/09 14:14:20;;;;;;;10.2;14.7;;;;;;;10.6;69.3;100280;;;;
2021/11/09 14:24:07;;;;;;;10.8;15;;;;;;;10.3;68.2;100290;;;;
2021/11/09 14:34:07;;;;;;;10.8;15;;;;;;;9.9;69.1;100290;;;;
2021/11/09 14:44:09;;;;;;;10.8;15;;;;;;;9.6;70.2;100290;;;;
2021/11/09 14:54:17;;;;;;;10.5;14.9;;;;;;;9.1;70.6;100280;;;;
2021/11/09 15:05:12;;;;;;;10.5;14.9;;;;;;;8.4;71.2;100290;;;;
2021/11/09 15:26:16;;;;;;;15.9;22;;;;;;;7.3;74.3;100300;;;;
2021/11/09 15:36:28;;;;;;;15.9;22;;;;;;;6.8;76;100310;;;;
2021/11/09 15:46:08;;;;;;;15.9;22;;;;;;;6.6;77.6;100310;;;;
2021/11/09 15:56:07;;;;;;;28.6;35.7;;;;;;;6.3;78.5;100320;;;;
2021/11/09 16:06:08;;;;;;;28.6;35.7;;;;;;;6.1;79;100310;;;;
2021/11/09 16:16:08;;;;;;;28.6;35.7;;;;;;;5.7;78.6;100320;;;;
2021/11/09 16:26:08;;;;;;;52.5;63.6;;;;;;;5.4;79;100340;;;;
2021/11/09 16:36:10;;;;;;;52.5;63.6;;;;;;;5.1;79.1;100340;;;;
2021/11/09 16:46:14;;;;;;;52.5;63.6;;;;;;;5;80.6;100340;;;;
2021/11/09 16:56:35;;;;;;;61.1;68.8;;;;;;;4.8;81.3;100360;;;;
2021/11/09 18:07:29;;;;;;;64;75.7;;;;;;;3.8;81.6;100410;;;;
2021/11/09 18:16:20;;;;;;;64;75.7;;;;;;;3.7;82.3;100420;;;;
2021/11/09 18:27:07;;;;;;;46.6;56.7;;;;;;;3.5;82.2;100420;;;;
2021/11/09 18:37:08;;;;;;;46.6;56.7;;;;;;;3.4;82.2;100420;;;;
2021/11/09 18:47:07;;;;;;;46.6;56.7;;;;;;;3.2;81.8;100420;;;;
2021/11/09 18:57:07;;;;;;;47.6;56.8;;;;;;;3.1;82.2;100420;;;;
2021/11/09 19:07:08;;;;;;;47.6;56.8;;;;;;;3.2;83.8;100420;;;;
2021/11/09 19:17:07;;;;;;;47.6;56.8;;;;;;;3.1;83.3;100430;;;;
2021/11/09 19:27:08;;;;;;;38.2;47;;;;;;;3;83;100440;;;;
2021/11/09 19:37:07;;;;;;;38.2;47;;;;;;;2.8;82.5;100450;;;;
2021/11/09 19:47:07;;;;;;;38.2;47;;;;;;;2.7;82.3;100460;;;;
2021/11/09 19:57:08;;;;;;;43.6;49.9;;;;;;;2.5;82;100470;;;;
2021/11/09 20:07:08;;;;;;;43.6;49.9;;;;;;;2.4;82;100480;;;;
2021/11/09 20:17:07;;;;;;;43.6;49.9;;;;;;;2.3;82.2;100470;;;;
2021/11/09 20:27:08;;;;;;;62.3;74.2;;;;;;;2.2;82.1;100470;;;;
2021/11/09 20:37:07;;;;;;;62.3;74.2;;;;;;;2;81.7;100470;;;;
2021/11/09 20:47:09;;;;;;;62.3;74.2;;;;;;;1.9;81.7;100480;;;;
2021/11/09 20:57:08;;;;;;;78.2;92.9;;;;;;;1.8;81.9;100480;;;;
2021/11/09 21:07:07;;;;;;;78.2;92.9;;;;;;;1.8;81.9;100470;;;;
2021/11/09 21:27:08;;;;;;;80.7;95;;;;;;;1.6;81.9;100480;;;;
2021/11/09 21:37:10;;;;;;;80.7;95;;;;;;;1.6;81.9;100470;;;;
2021/11/09 21:47:08;;;;;;;80.7;95;;;;;;;1.6;82.5;100450;;;;
2021/11/09 21:58:08;;;;;;;71.3;84.3;;;;;;;1.4;82.7;100420;;;;
2021/11/09 22:08:08;;;;;;;71.3;84.3;;;;;;;1.2;81.8;100430;;;;
2021/11/09 22:18:07;;;;;;;71.3;84.3;;;;;;;1.2;81.6;100420;;;;
2021/11/09 22:28:08;;;;;;;68.7;80.1;;;;;;;1.1;81.3;100400;;;;
2021/11/09 22:38:08;;;;;;;68.7;80.1;;;;;;;1;81.3;100380;;;;
2021/11/09 22:48:08;;;;;;;68.7;80.1;;;;;;;0.7;81.4;100370;;;;
2021/11/09 22:58:08;;;;;;;58.8;69;;;;;;;0.7;81.2;100360;;;;
2021/11/09 23:08:08;;;;;;;58.8;69;;;;;;;0.5;81.7;100320;;;;
2021/11/09 23:18:08;;;;;;;58.8;69;;;;;;;0.5;82.3;100310;;;;
2021/11/09 23:28:08;;;;;;;65.3;84.3;;;;;;;0.6;82.4;100320;;;;
2021/11/09 23:38:08;;;;;;;65.3;84.3;;;;;;;0.5;82.7;100320;;;;
2021/11/09 23:48:08;;;;;;;65.3;84.3;;;;;;;0.5;82.6;100320;;;;
2021/11/09 23:58:08;;;;;;;53.1;70.1;;;;;;;0.4;82.7;100320;;;;
